Time;durP1;ratioP1;P1;durP2;ratioP2;P2;SDS_P1;SDS_P2;PMS_P1;PMS_P2;Temp;Humidity;BMP_temperature;BMP_pressure;BME280_temperature;BME280_humidity;BME280_pressure;Samples;Min_cycle;Max_cycle;Signal;HPM_P1;HPM_P2
2021/11/07 00:00:29;;;;;;;28.93;26.03;;;2.40;99.90;;;;;;4861708;29;20454;-81
2021/11/07 00:03:04;;;;;;;29.23;26.20;;;2.40;99.90;;;;;;4860164;29;20478;-81
2021/11/07 00:05:33;;;;;;;28.07;25.27;;;2.30;99.90;;;;;;4861145;29;20524;-80
2021/11/07 00:10:47;;;;;;;24.07;21.90;;;2.30;99.90;;;;;;4874681;29;20459;-81
2021/11/07 00:13:18;;;;;;;25.63;23.13;;;2.20;99.90;;;;;;4862805;29;21023;-80
2021/11/07 00:15:46;;;;;;;25.43;23.00;;;2.10;99.90;;;;;;4852395;29;20505;-80
2021/11/07 00:18:15;;;;;;;26.30;23.60;;;2.10;99.90;;;;;;4847020;29;20540;-81
2021/11/07 00:20:52;;;;;;;26.57;23.97;;;2.00;99.90;;;;;;4859855;29;20496;-80
2021/11/07 00:23:32;;;;;;;26.43;23.73;;;2.00;99.90;;;;;;4860817;29;21071;-80
2021/11/07 00:26:04;;;;;;;26.20;23.70;;;2.00;99.90;;;;;;4862800;29;20455;-81
2021/11/07 00:28:36;;;;;;;24.20;22.00;;;2.00;99.90;;;;;;4862909;29;20475;-81
2021/11/07 00:31:13;;;;;;;23.43;21.37;;;1.90;99.90;;;;;;4863132;29;20491;-81
2021/11/07 00:33:56;;;;;;;24.07;21.87;;;1.90;99.90;;;;;;4863064;29;20492;-80
2021/11/07 00:36:28;;;;;;;25.10;23.00;;;1.90;99.90;;;;;;4864520;29;20449;-80
2021/11/07 00:38:59;;;;;;;24.23;22.10;;;1.90;99.90;;;;;;4849171;29;20833;-81
2021/11/07 00:41:34;;;;;;;24.83;22.47;;;2.00;99.90;;;;;;4864014;29;20448;-81
2021/11/07 00:44:05;;;;;;;23.87;21.87;;;1.90;99.90;;;;;;4869197;29;20493;-80
2021/11/07 00:46:39;;;;;;;23.57;21.67;;;1.90;99.90;;;;;;4862815;29;20457;-80
2021/11/07 00:49:08;;;;;;;25.17;22.77;;;1.90;99.90;;;;;;4861834;29;20475;-81
2021/11/07 00:51:42;;;;;;;23.80;21.80;;;1.80;99.90;;;;;;4876180;29;20451;-80
2021/11/07 00:54:25;;;;;;;25.07;22.57;;;1.80;99.90;;;;;;4863906;29;20441;-80
2021/11/07 00:56:54;;;;;;;24.83;22.63;;;1.80;99.90;;;;;;4870765;29;20783;-81
2021/11/07 00:59:36;;;;;;;24.03;22.03;;;1.70;99.90;;;;;;4863572;29;20945;-80
2021/11/07 01:02:16;;;;;;;24.10;21.90;;;1.70;99.90;;;;;;4846588;29;20846;-80
2021/11/07 01:04:47;;;;;;;24.97;22.57;;;1.60;99.90;;;;;;4870887;29;20462;-80
2021/11/07 01:07:14;;;;;;;25.63;23.33;;;1.60;99.90;;;;;;4869913;29;20919;-80
2021/11/07 01:09:41;;;;;;;23.33;21.27;;;1.50;99.90;;;;;;4861661;29;20467;-81
2021/11/07 01:12:09;;;;;;;24.63;22.53;;;1.40;99.90;;;;;;4867221;29;20481;-81
2021/11/07 01:14:38;;;;;;;24.40;22.40;;;1.40;99.90;;;;;;4862020;29;20471;-81
2021/11/07 01:17:05;;;;;;;24.50;22.33;;;1.40;99.90;;;;;;4869133;29;20457;-80
2021/11/07 01:19:32;;;;;;;26.93;24.37;;;1.50;99.90;;;;;;4862398;29;20451;-81
2021/11/07 01:22:02;;;;;;;26.53;24.03;;;1.50;99.90;;;;;;4861385;29;20481;-81
2021/11/07 01:24:32;;;;;;;26.40;23.93;;;1.60;99.90;;;;;;4862882;29;21037;-80
2021/11/07 01:27:10;;;;;;;26.43;24.00;;;1.60;99.90;;;;;;4861355;29;20479;-80
2021/11/07 01:29:41;;;;;;;27.67;24.93;;;1.60;99.90;;;;;;4863485;29;20486;-81
2021/11/07 01:32:09;;;;;;;27.13;24.53;;;1.60;99.90;;;;;;4851922;29;20563;-81
2021/11/07 01:34:49;;;;;;;27.23;24.73;;;1.60;99.90;;;;;;4869127;29;20466;-81
2021/11/07 01:37:18;;;;;;;26.40;23.90;;;1.50;99.90;;;;;;4854463;29;20523;-81
2021/11/07 01:39:50;;;;;;;26.03;23.63;;;1.50;99.90;;;;;;4862512;29;20464;-80
2021/11/07 01:42:21;;;;;;;34.97;24.97;;;1.60;99.90;;;;;;4846792;29;20478;-80
2021/11/07 01:44:52;;;;;;;28.03;25.30;;;1.50;99.90;;;;;;4876013;29;20455;-80
2021/11/07 01:47:21;;;;;;;26.57;24.00;;;1.50;99.90;;;;;;4862430;29;20455;-81
2021/11/07 01:49:48;;;;;;;28.83;25.70;;;1.50;99.90;;;;;;4867210;29;20538;-81
2021/11/07 01:52:15;;;;;;;30.93;24.47;;;1.50;99.90;;;;;;4875348;29;20489;-81
2021/11/07 01:54:52;;;;;;;26.53;24.17;;;1.50;99.90;;;;;;4863152;29;20844;-81
2021/11/07 01:57:21;;;;;;;28.40;25.80;;;1.50;99.90;;;;;;4858899;29;20451;-80
2021/11/07 01:59:52;;;;;;;28.03;25.47;;;1.60;99.90;;;;;;4861690;29;20451;-80
2021/11/07 02:02:20;;;;;;;27.93;25.33;;;1.60;99.90;;;;;;4847885;29;20491;-80
2021/11/07 02:04:51;;;;;;;27.53;25.03;;;1.60;99.90;;;;;;4851433;29;20846;-80
2021/11/07 02:07:18;;;;;;;27.27;24.60;;;1.70;99.90;;;;;;4853452;29;20465;-81
2021/11/07 02:09:45;;;;;;;27.37;24.90;;;1.80;99.90;;;;;;4862506;29;20531;-80
2021/11/07 02:12:12;;;;;;;27.93;25.50;;;1.80;99.90;;;;;;4864970;29;20938;-81
2021/11/07 02:14:40;;;;;;;28.03;25.57;;;1.80;99.90;;;;;;4867117;29;20454;-81
2021/11/07 02:17:09;;;;;;;27.20;24.70;;;1.80;99.90;;;;;;4865529;29;20453;-82
2021/11/07 02:19:37;;;;;;;26.30;23.83;;;1.80;99.90;;;;;;4851582;29;20543;-81
2021/11/07 02:22:06;;;;;;;27.53;25.07;;;1.80;99.90;;;;;;4872131;29;20491;-82
2021/11/07 02:24:36;;;;;;;26.23;23.87;;;1.90;99.90;;;;;;4864721;29;20985;-81
2021/11/07 02:27:04;;;;;;;26.20;23.93;;;1.80;99.90;;;;;;4864643;29;20478;-81
2021/11/07 02:29:31;;;;;;;26.23;23.93;;;1.70;99.90;;;;;;4863339;29;20566;-81
2021/11/07 02:31:59;;;;;;;26.20;23.90;;;1.70;99.90;;;;;;4853678;29;20506;-81
2021/11/07 02:34:27;;;;;;;27.30;24.80;;;1.70;99.90;;;;;;4863096;29;20478;-81
2021/11/07 02:36:55;;;;;;;26.00;23.60;;;1.70;99.90;;;;;;4855930;29;20444;-81
2021/11/07 02:39:24;;;;;;;27.17;24.57;;;1.70;99.90;;;;;;4868328;29;20467;-81
2021/11/07 02:41:52;;;;;;;25.00;22.70;;;1.60;99.90;;;;;;4862987;29;20438;-81
2021/11/07 02:44:33;;;;;;;25.90;23.57;;;1.60;99.90;;;;;;4861355;29;20467;-81
2021/11/07 02:47:01;;;;;;;26.27;23.77;;;1.50;99.90;;;;;;4860784;29;20443;-81
2021/11/07 02:49:28;;;;;;;25.97;23.67;;;1.50;99.90;;;;;;4858250;29;20485;-80
2021/11/07 02:51:57;;;;;;;25.07;22.67;;;1.60;99.90;;;;;;4864962;29;20452;-81
2021/11/07 02:54:26;;;;;;;25.40;23.10;;;1.60;99.90;;;;;;4865770;29;20464;-80
2021/11/07 02:56:53;;;;;;;27.57;24.60;;;1.70;99.90;;;;;;4861892;29;20462;-81
2021/11/07 02:59:22;;;;;;;26.43;23.83;;;1.70;99.90;;;;;;4859386;29;20489;-81
2021/11/07 03:01:50;;;;;;;25.50;23.23;;;1.60;99.90;;;;;;4861931;29;20442;-81
2021/11/07 03:04:17;;;;;;;25.57;23.07;;;1.60;99.90;;;;;;4865080;29;20503;-81
2021/11/07 03:06:44;;;;;;;25.33;23.13;;;1.60;99.90;;;;;;4861608;29;20479;-80
2021/11/07 03:09:17;;;;;;;25.77;23.47;;;1.60;99.90;;;;;;4861764;29;20454;-80
2021/11/07 03:11:46;;;;;;;26.73;24.00;;;1.60;99.90;;;;;;4862069;29;21518;-80
2021/11/07 03:14:16;;;;;;;25.53;23.20;;;1.60;99.90;;;;;;4852646;29;20461;-80
2021/11/07 03:16:44;;;;;;;25.30;23.07;;;1.60;99.90;;;;;;4868543;29;20915;-81
2021/11/07 03:19:11;;;;;;;24.67;22.47;;;1.50;99.90;;;;;;4860253;29;20535;-81
2021/11/07 03:21:39;;;;;;;25.37;23.17;;;1.50;99.90;;;;;;4861352;29;20472;-80
2021/11/07 03:24:06;;;;;;;25.17;22.77;;;1.40;99.90;;;;;;4842131;29;20456;-81
2021/11/07 03:26:36;;;;;;;26.00;23.60;;;1.40;99.90;;;;;;4855162;29;20441;-81
2021/11/07 03:29:06;;;;;;;26.13;23.87;;;1.30;99.90;;;;;;4857401;29;20451;-81
2021/11/07 03:31:42;;;;;;;26.70;24.20;;;1.30;99.90;;;;;;4862351;29;20799;-81
2021/11/07 03:34:13;;;;;;;26.77;24.17;;;1.30;99.90;;;;;;4861694;29;20447;-80
2021/11/07 03:36:46;;;;;;;26.10;23.70;;;1.30;99.90;;;;;;4866719;29;20479;-81
2021/11/07 03:39:15;;;;;;;26.43;23.80;;;1.40;99.90;;;;;;4861476;29;20940;-81
2021/11/07 03:41:44;;;;;;;24.03;22.00;;;1.40;99.90;;;;;;4847588;29;20450;-80
2021/11/07 03:44:13;;;;;;;24.77;22.67;;;1.40;99.90;;;;;;4861984;29;20453;-81
2021/11/07 03:46:41;;;;;;;26.40;23.73;;;1.40;99.90;;;;;;4843817;29;20448;-80
2021/11/07 03:49:09;;;;;;;25.73;23.50;;;1.40;99.90;;;;;;4850704;29;20474;-80
2021/11/07 03:51:37;;;;;;;26.47;24.13;;;1.40;99.90;;;;;;4861140;29;20443;-80
2021/11/07 03:54:05;;;;;;;27.53;24.73;;;1.40;99.90;;;;;;4861194;29;20674;-80
2021/11/07 03:56:32;;;;;;;26.30;23.83;;;1.40;99.90;;;;;;4857268;29;20796;-80
2021/11/07 03:58:59;;;;;;;25.93;23.60;;;1.40;99.90;;;;;;4850898;29;20457;-82
2021/11/07 04:01:28;;;;;;;27.27;24.83;;;1.40;99.90;;;;;;4874716;29;20446;-80
2021/11/07 04:03:55;;;;;;;26.47;24.07;;;1.50;99.90;;;;;;4898840;23;20512;-75
2021/11/07 04:06:22;;;;;;;26.83;24.33;;;1.40;99.90;;;;;;4876596;29;20965;-75
2021/11/07 04:08:49;;;;;;;26.33;23.67;;;1.40;99.90;;;;;;4872833;29;20884;-76
2021/11/07 04:11:16;;;;;;;26.23;23.63;;;1.40;99.90;;;;;;4870472;29;20493;-76
2021/11/07 04:13:43;;;;;;;26.83;24.40;;;1.40;99.90;;;;;;4879550;29;20476;-76
2021/11/07 04:16:11;;;;;;;26.90;24.50;;;1.40;99.90;;;;;;4878568;29;20454;-76
2021/11/07 04:18:41;;;;;;;27.77;25.07;;;1.40;99.90;;;;;;4867141;29;20846;-76
2021/11/07 04:21:09;;;;;;;26.60;24.13;;;1.50;99.90;;;;;;4880955;29;20446;-79
2021/11/07 04:23:36;;;;;;;28.93;26.07;;;1.50;99.90;;;;;;4877385;29;20930;-78
2021/11/07 04:26:04;;;;;;;26.97;24.17;;;1.50;99.90;;;;;;4880999;29;20459;-76
2021/11/07 04:28:31;;;;;;;28.33;25.53;;;1.50;99.90;;;;;;4880520;29;20509;-75
2021/11/07 04:30:58;;;;;;;28.07;25.43;;;1.60;99.90;;;;;;4880712;29;21052;-76
2021/11/07 04:33:25;;;;;;;29.57;25.80;;;1.60;99.90;;;;;;4881738;29;20951;-76
2021/11/07 04:35:54;;;;;;;27.60;24.90;;;1.60;99.90;;;;;;4880787;29;20953;-75
2021/11/07 04:38:21;;;;;;;27.33;24.83;;;1.60;99.90;;;;;;4880271;29;20452;-75
2021/11/07 04:40:48;;;;;;;28.00;25.23;;;1.60;99.90;;;;;;4871510;29;20447;-76
2021/11/07 04:43:15;;;;;;;27.97;25.23;;;1.50;99.90;;;;;;4881241;29;20514;-76
2021/11/07 04:45:42;;;;;;;27.27;24.73;;;1.50;99.90;;;;;;4877679;29;20842;-75
2021/11/07 04:48:09;;;;;;;26.73;24.10;;;1.50;99.90;;;;;;4880836;29;20464;-76
2021/11/07 04:50:37;;;;;;;27.37;24.87;;;1.50;99.90;;;;;;4890731;29;20536;-75
2021/11/07 04:53:07;;;;;;;26.57;24.10;;;1.40;99.90;;;;;;4872475;29;21082;-75
2021/11/07 04:55:34;;;;;;;26.23;23.73;;;1.40;99.90;;;;;;4887478;29;20556;-75
2021/11/07 04:58:01;;;;;;;27.23;24.47;;;1.40;99.90;;;;;;4883207;29;20449;-75
2021/11/07 05:00:28;;;;;;;27.23;24.63;;;1.40;99.90;;;;;;4867385;29;20458;-75
2021/11/07 05:02:55;;;;;;;25.53;23.17;;;1.40;99.90;;;;;;4881854;29;20484;-75
2021/11/07 05:05:22;;;;;;;25.97;23.57;;;1.40;99.90;;;;;;4865131;29;20462;-75
2021/11/07 05:07:51;;;;;;;24.57;22.33;;;1.40;99.90;;;;;;4882907;29;20446;-75
2021/11/07 05:10:20;;;;;;;25.37;22.97;;;1.40;99.90;;;;;;4863439;29;20472;-75
2021/11/07 05:12:47;;;;;;;25.47;23.07;;;1.40;99.90;;;;;;4870327;29;20472;-77
2021/11/07 05:15:14;;;;;;;26.67;24.07;;;1.30;99.90;;;;;;4884702;29;21003;-76
2021/11/07 05:17:41;;;;;;;25.73;23.43;;;1.30;99.90;;;;;;4883604;29;20446;-76
2021/11/07 05:20:10;;;;;;;25.50;23.10;;;1.20;99.90;;;;;;4869649;29;20454;-78
2021/11/07 05:22:38;;;;;;;26.27;23.70;;;1.20;99.90;;;;;;4881246;29;20513;-77
2021/11/07 05:25:06;;;;;;;25.07;22.60;;;1.30;99.90;;;;;;4881493;29;20540;-78
2021/11/07 05:27:34;;;;;;;25.97;23.47;;;1.30;99.90;;;;;;4873447;29;20447;-79
2021/11/07 05:30:01;;;;;;;24.90;22.70;;;1.30;99.90;;;;;;4879782;29;20482;-79
2021/11/07 05:32:28;;;;;;;25.67;23.17;;;1.30;99.90;;;;;;4872864;29;20485;-77
2021/11/07 05:34:55;;;;;;;26.17;23.57;;;1.40;99.90;;;;;;4883916;29;20516;-78
2021/11/07 05:37:22;;;;;;;26.53;23.73;;;1.30;99.90;;;;;;4881327;29;20537;-78
2021/11/07 05:39:49;;;;;;;27.73;25.07;;;1.30;99.90;;;;;;4876246;29;20456;-78
2021/11/07 05:42:16;;;;;;;25.50;23.00;;;1.30;99.90;;;;;;4876271;29;20911;-77
2021/11/07 05:44:44;;;;;;;24.30;22.03;;;1.30;99.90;;;;;;4878909;29;20454;-76
2021/11/07 05:47:11;;;;;;;24.83;22.57;;;1.30;99.90;;;;;;4881643;29;20956;-77
2021/11/07 05:49:38;;;;;;;25.93;23.27;;;1.30;99.90;;;;;;4892615;29;20503;-78
2021/11/07 05:52:05;;;;;;;25.17;22.90;;;1.40;99.90;;;;;;4880026;29;21019;-78
2021/11/07 05:54:33;;;;;;;26.27;23.80;;;1.40;99.90;;;;;;4872849;29;20458;-77
2021/11/07 05:57:02;;;;;;;24.80;22.53;;;1.40;99.90;;;;;;4891882;29;20449;-75
2021/11/07 05:59:29;;;;;;;26.43;23.93;;;1.40;99.90;;;;;;4883757;29;20522;-76
2021/11/07 06:01:57;;;;;;;27.57;24.67;;;1.40;99.90;;;;;;4879576;29;20442;-76
2021/11/07 06:04:24;;;;;;;26.30;23.57;;;1.40;99.90;;;;;;4881352;29;20501;-76
2021/11/07 06:06:51;;;;;;;26.93;24.17;;;1.40;99.90;;;;;;4864706;29;20481;-76
2021/11/07 06:09:18;;;;;;;26.20;23.67;;;1.40;99.90;;;;;;4866754;29;20546;-76
2021/11/07 06:11:45;;;;;;;26.47;24.03;;;1.40;99.90;;;;;;4870136;29;20502;-76
2021/11/07 06:14:12;;;;;;;27.43;24.70;;;1.40;99.90;;;;;;4879622;29;20454;-76
2021/11/07 06:16:39;;;;;;;27.20;24.37;;;1.40;99.90;;;;;;4870787;29;20475;-76
2021/11/07 06:19:07;;;;;;;27.57;24.67;;;1.40;99.90;;;;;;4877199;29;20457;-76
2021/11/07 06:21:36;;;;;;;27.03;24.40;;;1.40;99.90;;;;;;4881108;29;20442;-77
2021/11/07 06:24:05;;;;;;;27.33;24.43;;;1.50;99.90;;;;;;4866023;29;20475;-77
2021/11/07 06:26:31;;;;;;;25.73;23.33;;;1.50;99.90;;;;;;4881198;29;20467;-76
2021/11/07 06:28:59;;;;;;;25.67;23.27;;;1.50;99.90;;;;;;4871191;29;20531;-76
2021/11/07 06:31:27;;;;;;;26.03;23.50;;;1.50;99.90;;;;;;4872102;29;20534;-76
2021/11/07 06:33:54;;;;;;;25.83;23.43;;;1.60;99.90;;;;;;4875073;29;20467;-76
2021/11/07 06:36:22;;;;;;;25.97;23.27;;;1.60;99.90;;;;;;4883205;29;20545;-76
2021/11/07 06:38:49;;;;;;;26.67;24.07;;;1.70;99.90;;;;;;4880440;29;20877;-76
2021/11/07 06:41:16;;;;;;;26.23;23.70;;;1.80;99.90;;;;;;4880378;29;20442;-76
2021/11/07 06:43:43;;;;;;;27.57;24.90;;;1.90;99.90;;;;;;4871041;29;20479;-76
2021/11/07 06:46:10;;;;;;;26.57;24.03;;;1.90;99.90;;;;;;4880394;29;20446;-77
2021/11/07 06:48:37;;;;;;;26.70;24.03;;;2.00;99.90;;;;;;4877136;29;20466;-76
2021/11/07 06:51:04;;;;;;;26.03;23.40;;;2.00;99.90;;;;;;4881169;29;20482;-76
2021/11/07 06:53:33;;;;;;;26.57;24.00;;;2.00;99.90;;;;;;4879844;29;20513;-76
2021/11/07 06:56:00;;;;;;;25.70;23.40;;;2.00;99.90;;;;;;4867876;29;20458;-76
2021/11/07 06:58:27;;;;;;;26.30;23.67;;;2.10;99.90;;;;;;4870467;29;20864;-76
2021/11/07 07:00:53;;;;;;;25.70;23.10;;;2.00;99.90;;;;;;4880029;29;20436;-76
2021/11/07 07:03:20;;;;;;;26.03;23.47;;;2.10;99.90;;;;;;4872180;29;20488;-76
2021/11/07 07:05:48;;;;;;;25.60;23.10;;;2.20;99.90;;;;;;4879220;29;21216;-76
2021/11/07 07:08:19;;;;;;;24.33;22.23;;;2.30;99.90;;;;;;4874318;29;20876;-76
2021/11/07 07:10:52;;;;;;;26.27;23.77;;;2.40;99.90;;;;;;4883560;29;20918;-76
2021/11/07 07:13:25;;;;;;;24.87;22.60;;;2.50;99.90;;;;;;4887015;29;20474;-76
2021/11/07 07:16:00;;;;;;;24.33;22.03;;;2.70;99.90;;;;;;4878404;29;20462;-77
2021/11/07 07:18:35;;;;;;;25.80;23.30;;;2.70;99.90;;;;;;4884153;29;20837;-76
2021/11/07 07:21:11;;;;;;;25.47;23.03;;;2.80;99.90;;;;;;4886903;29;20441;-76
2021/11/07 07:29:37;;;;;;;25.37;22.90;;;3.10;99.90;;;;;;4841374;29;20457;-78
2021/11/07 07:34:53;;;;;;;25.30;22.60;;;3.30;99.90;;;;;;4868125;29;20595;-76
2021/11/07 07:37:20;;;;;;;24.57;22.27;;;3.50;99.90;;;;;;4877849;29;20446;-77
2021/11/07 07:39:47;;;;;;;22.73;20.63;;;3.70;99.90;;;;;;4876331;29;20458;-76
2021/11/07 07:42:15;;;;;;;22.30;20.30;;;3.80;99.90;;;;;;4881143;29;20257;-76
2021/11/07 07:44:42;;;;;;;23.20;20.90;;;4.00;99.90;;;;;;4874478;29;20253;-78
2021/11/07 07:47:10;;;;;;;21.17;19.27;;;4.10;99.90;;;;;;4894466;29;20288;-78
2021/11/07 07:49:37;;;;;;;21.03;19.13;;;4.20;99.90;;;;;;4886778;29;20205;-78
2021/11/07 07:52:04;;;;;;;21.27;19.37;;;4.30;99.90;;;;;;4888384;29;20225;-78
2021/11/07 07:54:31;;;;;;;22.33;20.23;;;4.40;99.90;;;;;;4881346;29;20217;-78
2021/11/07 07:56:58;;;;;;;22.30;20.20;;;4.60;99.90;;;;;;4880268;29;20269;-76
2021/11/07 07:59:26;;;;;;;20.27;18.37;;;4.80;99.90;;;;;;4881704;29;20205;-75
2021/11/07 08:01:53;;;;;;;16.10;14.50;;;5.10;99.90;;;;;;4876883;29;20194;-78
2021/11/07 08:04:21;;;;;;;18.93;17.13;;;5.50;99.90;;;;;;4886170;29;20232;-78
2021/11/07 08:06:48;;;;;;;17.37;15.67;;;5.80;99.90;;;;;;4879245;29;20238;-78
2021/11/07 08:09:15;;;;;;;21.10;19.17;;;6.30;99.90;;;;;;4883497;29;20201;-76
2021/11/07 08:11:42;;;;;;;20.47;18.77;;;6.80;99.90;;;;;;4885020;29;20598;-77
2021/11/07 08:14:09;;;;;;;19.17;17.67;;;7.30;99.90;;;;;;4889770;29;20229;-79
2021/11/07 08:16:38;;;;;;;19.70;18.17;;;7.80;99.90;;;;;;4865042;29;20220;-78
2021/11/07 08:19:05;;;;;;;17.67;16.17;;;8.10;99.90;;;;;;4888794;29;20673;-78
2021/11/07 08:21:37;;;;;;;11.90;9.00;;;8.30;99.90;;;;;;4872447;29;20227;-78
2021/11/07 08:24:05;;;;;;;14.33;12.90;;;8.40;99.90;;;;;;4869059;29;20235;-78
2021/11/07 08:26:32;;;;;;;14.00;12.60;;;8.20;99.90;;;;;;4879422;29;20266;-77
2021/11/07 08:28:59;;;;;;;12.33;10.77;;;8.20;99.90;;;;;;4888891;29;20718;-77
2021/11/07 08:31:28;;;;;;;17.97;16.53;;;8.10;99.90;;;;;;4879349;29;20232;-77
2021/11/07 08:33:57;;;;;;;20.27;18.43;;;8.00;99.90;;;;;;4869876;29;20252;-78
2021/11/07 08:36:27;;;;;;;19.93;18.13;;;7.90;99.90;;;;;;4868482;29;20242;-78
2021/11/07 08:38:58;;;;;;;22.67;20.67;;;7.60;99.90;;;;;;4869948;29;20212;-78
2021/11/07 08:41:26;;;;;;;21.17;19.47;;;7.40;99.90;;;;;;4876695;29;20631;-78
2021/11/07 09:00:33;;;;;;;19.80;18.03;;;6.30;99.90;;;;;;4878259;29;20206;-76
2021/11/07 09:03:19;;;;;;;19.27;17.57;;;6.30;99.90;;;;;;4881851;29;20304;-76
2021/11/07 09:05:56;;;;;;;19.27;17.57;;;6.20;99.90;;;;;;4890983;29;20198;-76
2021/11/07 09:08:24;;;;;;;18.77;17.27;;;6.20;99.90;;;;;;4880309;29;20569;-75
2021/11/07 09:10:52;;;;;;;18.97;17.37;;;6.20;99.90;;;;;;4882439;29;20580;-76
2021/11/07 09:13:20;;;;;;;17.80;16.23;;;6.30;99.90;;;;;;4883968;29;20227;-76
2021/11/07 09:15:49;;;;;;;17.27;15.97;;;6.40;99.90;;;;;;4883661;29;20210;-75
2021/11/07 09:18:17;;;;;;;18.97;17.37;;;6.40;99.90;;;;;;4870323;29;20209;-76
2021/11/07 09:20:52;;;;;;;18.40;16.80;;;6.50;99.90;;;;;;4882716;29;20229;-76
2021/11/07 09:23:23;;;;;;;17.50;16.00;;;6.60;99.90;;;;;;4879870;29;20263;-78
2021/11/07 09:26:03;;;;;;;19.23;17.63;;;6.70;99.90;;;;;;4874367;29;20302;-76
2021/11/07 09:28:35;;;;;;;18.47;16.87;;;6.70;99.90;;;;;;4881749;29;20207;-75
2021/11/07 09:31:09;;;;;;;18.70;17.00;;;6.60;99.90;;;;;;4872675;29;20215;-78
2021/11/07 09:33:45;;;;;;;18.40;16.80;;;6.60;99.90;;;;;;4884233;29;20610;-74
2021/11/07 09:36:19;;;;;;;18.20;16.47;;;6.60;99.90;;;;;;4885483;29;20209;-74
2021/11/07 09:38:48;;;;;;;18.50;16.80;;;6.60;99.90;;;;;;4887846;29;20210;-74
2021/11/07 09:41:22;;;;;;;18.67;17.07;;;6.50;99.90;;;;;;4877433;29;20274;-74
2021/11/07 09:43:52;;;;;;;18.17;16.67;;;6.50;99.90;;;;;;4898044;29;20250;-74
2021/11/07 09:46:31;;;;;;;18.87;17.17;;;6.70;99.90;;;;;;4891745;29;20212;-76
2021/11/07 09:49:02;;;;;;;17.90;16.50;;;6.80;99.90;;;;;;4869911;29;20566;-74
2021/11/07 09:51:34;;;;;;;17.30;15.87;;;7.00;99.90;;;;;;4878584;29;20234;-75
2021/11/07 09:54:03;;;;;;;16.97;15.47;;;7.30;99.90;;;;;;4890250;29;20219;-77
2021/11/07 09:56:30;;;;;;;16.10;14.90;;;7.50;99.90;;;;;;4879750;29;20216;-77
2021/11/07 09:58:59;;;;;;;16.87;15.57;;;7.80;99.90;;;;;;4869923;29;20246;-77
2021/11/07 10:01:27;;;;;;;15.83;14.70;;;8.00;99.90;;;;;;4874216;29;20234;-75
2021/11/07 10:03:55;;;;;;;17.07;15.83;;;8.10;99.90;;;;;;4864053;29;20229;-75
2021/11/07 10:06:30;;;;;;;16.67;15.37;;;8.20;99.90;;;;;;4873031;29;20220;-75
2021/11/07 10:09:00;;;;;;;8.50;7.47;;;8.50;99.90;;;;;;4886232;29;20643;-75
2021/11/07 10:11:31;;;;;;;10.60;9.63;;;8.60;99.90;;;;;;4870605;29;20227;-75
2021/11/07 10:14:10;;;;;;;5.30;4.80;;;8.80;99.90;;;;;;4894442;29;20698;-78
2021/11/07 10:16:42;;;;;;;15.63;14.57;;;9.00;99.90;;;;;;4874165;29;20279;-79
2021/11/07 10:19:19;;;;;;;5.97;5.40;;;9.30;99.90;;;;;;4881533;29;20204;-76
2021/11/07 10:21:48;;;;;;;6.43;5.93;;;9.50;99.90;;;;;;4863065;29;20201;-78
2021/11/07 10:24:21;;;;;;;6.17;5.30;;;9.60;99.90;;;;;;4876338;29;20225;-76
2021/11/07 10:26:54;;;;;;;8.67;7.97;;;9.60;99.90;;;;;;4877415;29;20201;-76
2021/11/07 10:29:23;;;;;;;12.33;11.43;;;9.50;99.90;;;;;;4874348;29;20584;-77
2021/11/07 10:31:57;;;;;;;5.27;4.37;;;9.30;99.90;;;;;;4879048;29;20302;-76
2021/11/07 10:34:35;;;;;;;6.23;5.63;;;9.20;99.90;;;;;;4878826;29;20231;-77
2021/11/07 10:45:49;;;;;;;8.77;8.13;;;9.40;99.90;;;;;;5004561;28;20227;-80
2021/11/07 10:52:02;;;;;;;9.33;8.70;;;9.50;99.90;;;;;;5056394;28;20190;-82
2021/11/07 11:18:31;;;;;;;9.63;8.90;;;10.70;99.90;;;;;;5034030;28;20219;-81
2021/11/07 11:24:03;;;;;;;8.63;8.07;;;10.80;99.90;;;;;;5033572;28;20196;-81
2021/11/07 11:29:50;;;;;;;10.00;9.20;;;11.00;99.90;;;;;;4952501;28;20316;-82
2021/11/07 11:32:22;;;;;;;8.10;7.50;;;11.00;99.90;;;;;;5021938;28;20231;-81
2021/11/07 11:35:04;;;;;;;11.33;10.63;;;10.90;99.90;;;;;;5005392;28;20200;-81
2021/11/07 11:37:41;;;;;;;10.60;9.90;;;11.00;99.90;;;;;;5016115;28;20231;-80
2021/11/07 11:40:14;;;;;;;11.60;10.90;;;11.00;99.90;;;;;;5020029;28;20234;-82
2021/11/07 11:42:46;;;;;;;12.00;11.30;;;11.20;99.90;;;;;;5029299;28;20217;-81
2021/11/07 11:45:17;;;;;;;10.73;10.03;;;11.40;99.90;;;;;;5031679;28;20197;-81
2021/11/07 11:48:03;;;;;;;11.53;10.83;;;11.70;99.90;;;;;;5011186;28;20205;-81
2021/11/07 11:53:27;;;;;;;12.27;11.37;;;11.80;99.90;;;;;;4989557;28;20202;-82
2021/11/07 11:56:12;;;;;;;11.20;10.50;;;11.80;99.90;;;;;;5001093;28;20292;-82
2021/11/07 11:58:54;;;;;;;10.90;10.23;;;11.70;99.90;;;;;;4996379;28;20224;-81
2021/11/07 12:01:24;;;;;;;11.33;10.63;;;11.60;99.90;;;;;;4992751;28;20260;-81
2021/11/07 12:04:05;;;;;;;11.20;10.50;;;11.40;99.90;;;;;;5017832;28;20204;-81
2021/11/07 12:06:42;;;;;;;11.40;10.70;;;11.30;99.90;;;;;;5001010;28;20226;-81
2021/11/07 12:09:26;;;;;;;10.80;10.10;;;11.20;99.90;;;;;;4998822;28;20248;-81
2021/11/07 12:11:57;;;;;;;11.70;10.90;;;11.30;99.90;;;;;;5002612;28;20225;-81
2021/11/07 12:14:32;;;;;;;11.17;10.37;;;11.30;99.90;;;;;;5004970;28;20553;-82
2021/11/07 12:17:04;;;;;;;10.40;9.80;;;11.20;99.90;;;;;;5002213;28;20697;-82
2021/11/07 12:19:37;;;;;;;10.67;10.00;;;11.30;99.90;;;;;;4989376;28;20222;-82
2021/11/07 12:22:14;;;;;;;11.30;10.60;;;11.30;99.90;;;;;;4990090;28;20745;-82
2021/11/07 12:25:02;;;;;;;11.20;10.60;;;11.30;99.90;;;;;;5006485;28;20220;-81
2021/11/07 12:27:34;;;;;;;11.67;10.97;;;11.40;99.90;;;;;;4985992;28;20276;-81
2021/11/07 12:30:03;;;;;;;11.30;10.70;;;11.40;99.90;;;;;;5009629;28;20730;-80
2021/11/07 12:32:34;;;;;;;11.60;10.90;;;11.40;99.90;;;;;;4988565;28;20197;-82
2021/11/07 12:35:10;;;;;;;11.57;10.87;;;11.40;99.90;;;;;;4999886;28;20209;-82
2021/11/07 12:40:46;;;;;;;11.40;10.70;;;11.50;99.90;;;;;;5007777;28;20235;-81
2021/11/07 12:43:16;;;;;;;11.60;10.90;;;11.50;99.90;;;;;;5001266;28;20205;-81
2021/11/07 12:45:47;;;;;;;15.63;14.20;;;11.60;99.90;;;;;;4993643;28;20683;-81
2021/11/07 12:48:35;;;;;;;12.80;11.70;;;11.60;99.90;;;;;;4983879;28;20202;-84
2021/11/07 12:51:05;;;;;;;13.70;12.47;;;11.60;99.90;;;;;;5000106;28;20257;-82
2021/11/07 12:53:56;;;;;;;11.70;10.90;;;11.50;99.90;;;;;;4993825;28;20625;-81
2021/11/07 12:56:39;;;;;;;11.10;10.50;;;11.60;99.90;;;;;;5016540;28;20209;-81
2021/11/07 12:59:09;;;;;;;11.10;10.50;;;11.60;99.90;;;;;;5014466;28;20229;-82
2021/11/07 13:02:13;;;;;;;10.90;10.20;;;11.60;99.90;;;;;;4997037;28;20203;-81
2021/11/07 13:04:45;;;;;;;10.70;10.10;;;11.60;99.90;;;;;;5022236;28;20303;-83
2021/11/07 13:07:18;;;;;;;10.80;10.10;;;11.60;99.90;;;;;;5017071;28;20635;-81
2021/11/07 13:09:54;;;;;;;10.90;10.30;;;11.60;99.90;;;;;;4993756;28;20230;-82
2021/11/07 13:12:24;;;;;;;9.97;9.37;;;11.50;99.90;;;;;;5012934;28;20200;-78
2021/11/07 13:18:12;;;;;;;10.40;9.80;;;11.50;99.90;;;;;;5011109;28;20201;-82
2021/11/07 13:20:56;;;;;;;10.20;9.70;;;11.50;99.90;;;;;;5013749;28;20209;-81
2021/11/07 13:26:31;;;;;;;11.00;10.30;;;11.50;99.90;;;;;;4987300;28;20243;-79
2021/11/07 13:29:07;;;;;;;11.27;10.43;;;11.40;99.90;;;;;;5018563;28;20713;-79
2021/11/07 13:31:44;;;;;;;10.87;10.17;;;11.40;99.90;;;;;;5013859;28;20193;-80
2021/11/07 13:34:17;;;;;;;10.93;10.27;;;11.40;99.90;;;;;;4991808;28;20211;-79
2021/11/07 13:36:45;;;;;;;10.70;10.10;;;11.40;99.90;;;;;;5012825;28;20202;-78
2021/11/07 13:39:21;;;;;;;10.97;10.37;;;11.30;99.90;;;;;;5011938;28;20233;-79
2021/11/07 13:41:53;;;;;;;11.07;10.37;;;11.30;99.90;;;;;;4999789;28;20213;-82
2021/11/07 13:44:24;;;;;;;10.90;10.30;;;11.30;99.90;;;;;;4989502;28;20204;-82
2021/11/07 13:46:52;;;;;;;10.57;9.97;;;11.30;99.90;;;;;;5011273;28;20207;-80
2021/11/07 15:02:22;;;;;;;;;;;;;;;;;;;;;
2021/11/07 15:04:57;;;;;;;10.00;9.40;;;9.90;99.90;;;;;;5000681;28;20212;-81
2021/11/07 15:07:29;;;;;;;10.00;9.47;;;9.80;99.90;;;;;;4991376;28;20200;-79
2021/11/07 15:10:11;;;;;;;10.43;9.80;;;9.80;99.90;;;;;;5009025;28;20225;-79
2021/11/07 15:12:49;;;;;;;10.10;9.50;;;9.80;99.90;;;;;;4989949;28;20252;-79
2021/11/07 15:15:35;;;;;;;10.87;9.97;;;9.80;99.90;;;;;;5009640;28;20197;-79
2021/11/07 15:18:18;;;;;;;10.40;9.80;;;9.70;99.90;;;;;;4990807;28;20713;-79
2021/11/07 15:20:54;;;;;;;9.90;9.30;;;9.70;99.90;;;;;;5009822;28;20651;-81
2021/11/07 15:23:31;;;;;;;10.07;9.47;;;9.70;99.90;;;;;;5006912;28;20203;-80
2021/11/07 15:25:59;;;;;;;10.30;9.60;;;9.70;99.90;;;;;;5011326;28;20279;-79
2021/11/07 15:28:28;;;;;;;10.80;10.10;;;9.70;99.90;;;;;;5012468;28;20196;-81
2021/11/07 15:32:00;;;;;;;10.97;10.27;;;9.70;99.90;;;;;;4992228;28;21028;-80